sensor_id;sensor_type;location;lat;lon;timestamp;pressure;altitude;pressure_sealevel;temperature
29701;BMP280;57917;51.380;-0.176;2023-02-23T00:05:13;101107.19;;;7.12
29701;BMP280;57917;51.380;-0.176;2023-02-23T00:11:05;101124.50;;;7.08
29701;BMP280;57917;51.380;-0.176;2023-02-23T00:24:16;101138.19;;;6.94
29701;BMP280;57917;51.380;-0.176;2023-02-23T00:30:27;101154.69;;;6.89
29701;BMP280;57917;51.380;-0.176;2023-02-23T00:36:34;101151.94;;;6.84
29701;BMP280;57917;51.380;-0.176;2023-02-23T00:42:43;101154.69;;;6.89
29701;BMP280;57917;51.380;-0.176;2023-02-23T00:48:55;101149.97;;;6.91
29701;BMP280;57917;51.380;-0.176;2023-02-23T00:54:43;101139.25;;;6.81
29701;BMP280;57917;51.380;-0.176;2023-02-23T01:00:39;101126.56;;;6.78
29701;BMP280;57917;51.380;-0.176;2023-02-23T01:13:19;101138.91;;;6.89
29701;BMP280;57917;51.380;-0.176;2023-02-23T01:19:06;101136.81;;;6.91
29701;BMP280;57917;51.380;-0.176;2023-02-23T01:24:53;101156.41;;;6.84
29701;BMP280;57917;51.380;-0.176;2023-02-23T01:30:40;101150.81;;;6.80
29701;BMP280;57917;51.380;-0.176;2023-02-23T01:36:28;101155.44;;;6.73
29701;BMP280;57917;51.380;-0.176;2023-02-23T01:42:15;101157.03;;;6.74
29701;BMP280;57917;51.380;-0.176;2023-02-23T01:48:07;101171.00;;;6.75
29701;BMP280;57917;51.380;-0.176;2023-02-23T01:54:27;101169.59;;;6.72
29701;BMP280;57917;51.380;-0.176;2023-02-23T02:00:17;101159.56;;;6.97
29701;BMP280;57917;51.380;-0.176;2023-02-23T02:06:08;101155.13;;;6.86
29701;BMP280;57917;51.380;-0.176;2023-02-23T02:11:56;101171.84;;;6.80
29701;BMP280;57917;51.380;-0.176;2023-02-23T02:24:37;101183.78;;;6.71
29701;BMP280;57917;51.380;-0.176;2023-02-23T02:31:20;101182.91;;;6.94
29701;BMP280;57917;51.380;-0.176;2023-02-23T02:43:36;101173.28;;;6.99
29701;BMP280;57917;51.380;-0.176;2023-02-23T02:49:32;101178.63;;;7.04
29701;BMP280;57917;51.380;-0.176;2023-02-23T02:55:25;101183.06;;;6.87
29701;BMP280;57917;51.380;-0.176;2023-02-23T03:01:13;101184.09;;;6.86
29701;BMP280;57917;51.380;-0.176;2023-02-23T03:07:24;101188.84;;;7.01
29701;BMP280;57917;51.380;-0.176;2023-02-23T03:26:40;101173.56;;;6.86
29701;BMP280;57917;51.380;-0.176;2023-02-23T03:32:53;101168.53;;;6.85
29701;BMP280;57917;51.380;-0.176;2023-02-23T03:45:12;101185.13;;;6.85
29701;BMP280;57917;51.380;-0.176;2023-02-23T03:51:21;101186.16;;;6.84
29701;BMP280;57917;51.380;-0.176;2023-02-23T03:57:30;101191.78;;;6.76
29701;BMP280;57917;51.380;-0.176;2023-02-23T04:03:39;101204.69;;;6.89
29701;BMP280;57917;51.380;-0.176;2023-02-23T04:09:45;101207.59;;;6.76
29701;BMP280;57917;51.380;-0.176;2023-02-23T04:15:59;101204.25;;;6.69
29701;BMP280;57917;51.380;-0.176;2023-02-23T04:21:46;101205.63;;;7.11
29701;BMP280;57917;51.380;-0.176;2023-02-23T04:27:34;101206.56;;;7.05
29701;BMP280;57917;51.380;-0.176;2023-02-23T04:33:22;101198.91;;;6.92
29701;BMP280;57917;51.380;-0.176;2023-02-23T04:39:10;101204.69;;;6.78
29701;BMP280;57917;51.380;-0.176;2023-02-23T04:44:57;101202.09;;;7.06
29701;BMP280;57917;51.380;-0.176;2023-02-23T04:50:44;101199.78;;;6.81
29701;BMP280;57917;51.380;-0.176;2023-02-23T04:56:31;101214.53;;;6.82
29701;BMP280;57917;51.380;-0.176;2023-02-23T05:02:18;101222.59;;;7.04
29701;BMP280;57917;51.380;-0.176;2023-02-23T05:08:05;101226.31;;;6.80
29701;BMP280;57917;51.380;-0.176;2023-02-23T05:13:52;101242.84;;;6.75
29701;BMP280;57917;51.380;-0.176;2023-02-23T05:19:39;101246.69;;;6.84
29701;BMP280;57917;51.380;-0.176;2023-02-23T05:25:26;101238.34;;;6.76
29701;BMP280;57917;51.380;-0.176;2023-02-23T05:31:13;101241.97;;;6.86
29701;BMP280;57917;51.380;-0.176;2023-02-23T05:37:00;101240.28;;;6.80
29701;BMP280;57917;51.380;-0.176;2023-02-23T05:42:47;101252.50;;;6.98
29701;BMP280;57917;51.380;-0.176;2023-02-23T05:48:34;101261.09;;;6.82
29701;BMP280;57917;51.380;-0.176;2023-02-23T05:54:21;101266.97;;;6.72
29701;BMP280;57917;51.380;-0.176;2023-02-23T06:00:09;101282.59;;;6.67
29701;BMP280;57917;51.380;-0.176;2023-02-23T06:05:57;101287.66;;;6.69
29701;BMP280;57917;51.380;-0.176;2023-02-23T06:11:47;101315.69;;;6.75
29701;BMP280;57917;51.380;-0.176;2023-02-23T06:17:34;101303.56;;;6.74
29701;BMP280;57917;51.380;-0.176;2023-02-23T06:23:21;101314.66;;;6.87
29701;BMP280;57917;51.380;-0.176;2023-02-23T06:29:10;101315.53;;;7.04
29701;BMP280;57917;51.380;-0.176;2023-02-23T06:34:57;101317.50;;;6.86
29701;BMP280;57917;51.380;-0.176;2023-02-23T06:40:44;101332.03;;;6.88
29701;BMP280;57917;51.380;-0.176;2023-02-23T06:46:31;101352.06;;;6.89
29701;BMP280;57917;51.380;-0.176;2023-02-23T06:52:19;101346.31;;;6.92
29701;BMP280;57917;51.380;-0.176;2023-02-23T06:58:06;101360.16;;;7.11
29701;BMP280;57917;51.380;-0.176;2023-02-23T07:03:53;101357.66;;;7.04
29701;BMP280;57917;51.380;-0.176;2023-02-23T07:09:40;101354.66;;;7.12
29701;BMP280;57917;51.380;-0.176;2023-02-23T07:15:28;101368.47;;;7.19
29701;BMP280;57917;51.380;-0.176;2023-02-23T07:21:18;101385.31;;;7.18
29701;BMP280;57917;51.380;-0.176;2023-02-23T07:27:05;101391.22;;;7.25
29701;BMP280;57917;51.380;-0.176;2023-02-23T07:33:00;101385.09;;;7.20
29701;BMP280;57917;51.380;-0.176;2023-02-23T07:38:57;101402.72;;;7.19
29701;BMP280;57917;51.380;-0.176;2023-02-23T07:45:03;101411.84;;;7.28
29701;BMP280;57917;51.380;-0.176;2023-02-23T07:51:17;101416.72;;;7.08
29701;BMP280;57917;51.380;-0.176;2023-02-23T07:57:05;101419.88;;;7.22
29701;BMP280;57917;51.380;-0.176;2023-02-23T08:02:52;101435.31;;;7.30
29701;BMP280;57917;51.380;-0.176;2023-02-23T08:08:42;101434.84;;;7.44
29701;BMP280;57917;51.380;-0.176;2023-02-23T08:14:31;101440.81;;;7.28
29701;BMP280;57917;51.380;-0.176;2023-02-23T08:20:19;101429.94;;;7.36
29701;BMP280;57917;51.380;-0.176;2023-02-23T08:26:06;101431.53;;;7.37
29701;BMP280;57917;51.380;-0.176;2023-02-23T08:39:44;101438.09;;;7.35
29701;BMP280;57917;51.380;-0.176;2023-02-23T08:45:31;101442.06;;;7.37
29701;BMP280;57917;51.380;-0.176;2023-02-23T08:51:18;101444.81;;;7.42
29701;BMP280;57917;51.380;-0.176;2023-02-23T08:57:05;101450.34;;;7.29
29701;BMP280;57917;51.380;-0.176;2023-02-23T09:02:52;101451.94;;;7.30
29701;BMP280;57917;51.380;-0.176;2023-02-23T09:08:39;101458.44;;;7.39
29701;BMP280;57917;51.380;-0.176;2023-02-23T09:14:27;101472.66;;;7.27
29701;BMP280;57917;51.380;-0.176;2023-02-23T09:20:20;101471.63;;;7.28
29701;BMP280;57917;51.380;-0.176;2023-02-23T09:26:12;101483.19;;;7.27
29701;BMP280;57917;51.380;-0.176;2023-02-23T09:32:00;101492.09;;;7.26
29701;BMP280;57917;51.380;-0.176;2023-02-23T09:38:29;101504.00;;;7.40
29701;BMP280;57917;51.380;-0.176;2023-02-23T09:45:48;101501.97;;;7.30
29701;BMP280;57917;51.380;-0.176;2023-02-23T09:59:44;101498.03;;;7.68
29701;BMP280;57917;51.380;-0.176;2023-02-23T10:05:46;101508.34;;;7.69
29701;BMP280;57917;51.380;-0.176;2023-02-23T10:12:10;101516.59;;;7.73
29701;BMP280;57917;51.380;-0.176;2023-02-23T10:24:04;101492.94;;;7.89
29701;BMP280;57917;51.380;-0.176;2023-02-23T10:30:00;101499.47;;;7.87
29701;BMP280;57917;51.380;-0.176;2023-02-23T10:35:55;101502.25;;;7.92
29701;BMP280;57917;51.380;-0.176;2023-02-23T10:42:01;101507.19;;;8.05
29701;BMP280;57917;51.380;-0.176;2023-02-23T10:47:53;101513.97;;;8.12
29701;BMP280;57917;51.380;-0.176;2023-02-23T10:53:41;101504.19;;;8.13
29701;BMP280;57917;51.380;-0.176;2023-02-23T10:59:33;101513.47;;;8.15
29701;BMP280;57917;51.380;-0.176;2023-02-23T11:11:21;101534.63;;;8.04
29701;BMP280;57917;51.380;-0.176;2023-02-23T11:17:34;101537.53;;;8.02
29701;BMP280;57917;51.380;-0.176;2023-02-23T11:29:45;101547.94;;;8.25
29701;BMP280;57917;51.380;-0.176;2023-02-23T11:35:45;101548.13;;;8.19
29701;BMP280;57917;51.380;-0.176;2023-02-23T11:41:37;101539.81;;;8.27
29701;BMP280;57917;51.380;-0.176;2023-02-23T11:47:27;101541.53;;;8.33
29701;BMP280;57917;51.380;-0.176;2023-02-23T11:53:18;101548.66;;;8.49
29701;BMP280;57917;51.380;-0.176;2023-02-23T11:59:17;101535.44;;;8.77
29701;BMP280;57917;51.380;-0.176;2023-02-23T12:05:08;101532.28;;;8.80
29701;BMP280;57917;51.380;-0.176;2023-02-23T12:11:05;101545.03;;;8.83
29701;BMP280;57917;51.380;-0.176;2023-02-23T12:16:57;101529.25;;;8.71
29701;BMP280;57917;51.380;-0.176;2023-02-23T12:23:14;101522.13;;;8.89
29701;BMP280;57917;51.380;-0.176;2023-02-23T12:35:41;101519.34;;;8.79
29701;BMP280;57917;51.380;-0.176;2023-02-23T12:41:38;101530.56;;;9.02
29701;BMP280;57917;51.380;-0.176;2023-02-23T12:53:54;101524.34;;;8.47
29701;BMP280;57917;51.380;-0.176;2023-02-23T13:19:47;101541.88;;;8.25
29701;BMP280;57917;51.380;-0.176;2023-02-23T13:31:38;101534.16;;;8.35
29701;BMP280;57917;51.380;-0.176;2023-02-23T13:37:30;101532.78;;;8.60
29701;BMP280;57917;51.380;-0.176;2023-02-23T13:43:26;101524.31;;;8.75
29701;BMP280;57917;51.380;-0.176;2023-02-23T14:01:39;101528.63;;;8.81
29701;BMP280;57917;51.380;-0.176;2023-02-23T14:07:37;101529.59;;;8.75
29701;BMP280;57917;51.380;-0.176;2023-02-23T14:13:38;101527.81;;;8.64
29701;BMP280;57917;51.380;-0.176;2023-02-23T14:19:40;101532.47;;;8.73
29701;BMP280;57917;51.380;-0.176;2023-02-23T14:31:20;101528.84;;;8.80
29701;BMP280;57917;51.380;-0.176;2023-02-23T14:37:36;101532.94;;;9.04
29701;BMP280;57917;51.380;-0.176;2023-02-23T14:43:53;101547.69;;;8.83
29701;BMP280;57917;51.380;-0.176;2023-02-23T14:50:04;101555.00;;;8.64
29701;BMP280;57917;51.380;-0.176;2023-02-23T14:55:58;101546.19;;;8.59
29701;BMP280;57917;51.380;-0.176;2023-02-23T15:01:45;101541.59;;;8.54
29701;BMP280;57917;51.380;-0.176;2023-02-23T15:07:36;101533.88;;;8.64
29701;BMP280;57917;51.380;-0.176;2023-02-23T15:13:32;101554.22;;;8.81
29701;BMP280;57917;51.380;-0.176;2023-02-23T15:19:22;101564.63;;;8.87
29701;BMP280;57917;51.380;-0.176;2023-02-23T15:25:25;101553.13;;;8.65
29701;BMP280;57917;51.380;-0.176;2023-02-23T15:31:19;101553.59;;;8.45
29701;BMP280;57917;51.380;-0.176;2023-02-23T15:37:13;101576.13;;;8.64
29701;BMP280;57917;51.380;-0.176;2023-02-23T15:43:08;101564.38;;;8.72
29701;BMP280;57917;51.380;-0.176;2023-02-23T15:48:58;101588.34;;;8.54
29701;BMP280;57917;51.380;-0.176;2023-02-23T16:01:50;101570.22;;;8.18
29701;BMP280;57917;51.380;-0.176;2023-02-23T16:08:03;101583.03;;;8.26
29701;BMP280;57917;51.380;-0.176;2023-02-23T16:13:52;101598.25;;;7.96
29701;BMP280;57917;51.380;-0.176;2023-02-23T16:19:43;101611.34;;;7.91
29701;BMP280;57917;51.380;-0.176;2023-02-23T16:25:44;101614.22;;;7.78
29701;BMP280;57917;51.380;-0.176;2023-02-23T16:31:47;101604.50;;;7.67
29701;BMP280;57917;51.380;-0.176;2023-02-23T16:37:59;101604.56;;;7.72
29701;BMP280;57917;51.380;-0.176;2023-02-23T16:43:54;101622.72;;;7.68
29701;BMP280;57917;51.380;-0.176;2023-02-23T16:57:32;101645.88;;;6.84
29701;BMP280;57917;51.380;-0.176;2023-02-23T17:03:34;101648.75;;;6.82
29701;BMP280;57917;51.380;-0.176;2023-02-23T17:09:34;101659.72;;;6.79
29701;BMP280;57917;51.380;-0.176;2023-02-23T17:15:22;101656.84;;;6.81
29701;BMP280;57917;51.380;-0.176;2023-02-23T17:21:19;101669.75;;;6.71
29701;BMP280;57917;51.380;-0.176;2023-02-23T17:27:28;101655.63;;;6.65
29701;BMP280;57917;51.380;-0.176;2023-02-23T17:33:37;101648.69;;;6.53
29701;BMP280;57917;51.380;-0.176;2023-02-23T17:39:24;101639.41;;;6.68
29701;BMP280;57917;51.380;-0.176;2023-02-23T17:45:17;101662.06;;;6.69
29701;BMP280;57917;51.380;-0.176;2023-02-23T17:51:15;101654.84;;;6.65
29701;BMP280;57917;51.380;-0.176;2023-02-23T17:57:07;101655.78;;;6.70
29701;BMP280;57917;51.380;-0.176;2023-02-23T18:02:55;101654.66;;;6.96
29701;BMP280;57917;51.380;-0.176;2023-02-23T18:08:44;101660.00;;;6.89
29701;BMP280;57917;51.380;-0.176;2023-02-23T18:14:39;101651.75;;;6.68
29701;BMP280;57917;51.380;-0.176;2023-02-23T18:20:31;101654.03;;;6.64
29701;BMP280;57917;51.380;-0.176;2023-02-23T18:26:22;101660.03;;;6.53
29701;BMP280;57917;51.380;-0.176;2023-02-23T18:32:10;101668.78;;;6.65
29701;BMP280;57917;51.380;-0.176;2023-02-23T18:37:57;101668.78;;;6.65
29701;BMP280;57917;51.380;-0.176;2023-02-23T18:43:45;101677.72;;;6.64
29701;BMP280;57917;51.380;-0.176;2023-02-23T18:49:32;101689.41;;;6.68
29701;BMP280;57917;51.380;-0.176;2023-02-23T18:55:28;101682.84;;;6.77
29701;BMP280;57917;51.380;-0.176;2023-02-23T19:01:21;101677.91;;;6.81
29701;BMP280;57917;51.380;-0.176;2023-02-23T19:07:08;101683.69;;;6.71
29701;BMP280;57917;51.380;-0.176;2023-02-23T19:12:56;101686.56;;;6.52
29701;BMP280;57917;51.380;-0.176;2023-02-23T19:18:43;101683.94;;;6.52
29701;BMP280;57917;51.380;-0.176;2023-02-23T19:24:30;101666.91;;;6.54
29701;BMP280;57917;51.380;-0.176;2023-02-23T19:30:22;101666.53;;;6.51
29701;BMP280;57917;51.380;-0.176;2023-02-23T19:36:12;101664.41;;;6.59
29701;BMP280;57917;51.380;-0.176;2023-02-23T19:41:59;101647.53;;;6.48
29701;BMP280;57917;51.380;-0.176;2023-02-23T19:47:49;101640.75;;;6.41
29701;BMP280;57917;51.380;-0.176;2023-02-23T19:53:39;101634.31;;;6.55
29701;BMP280;57917;51.380;-0.176;2023-02-23T19:59:26;101641.16;;;6.74
29701;BMP280;57917;51.380;-0.176;2023-02-23T20:05:26;101631.06;;;6.71
29701;BMP280;57917;51.380;-0.176;2023-02-23T20:11:23;101622.44;;;6.34
29701;BMP280;57917;51.380;-0.176;2023-02-23T20:17:13;101622.22;;;6.36
29701;BMP280;57917;51.380;-0.176;2023-02-23T20:23:01;101620.00;;;6.15
29701;BMP280;57917;51.380;-0.176;2023-02-23T20:28:48;101616.38;;;6.16
29701;BMP280;57917;51.380;-0.176;2023-02-23T20:34:38;101633.88;;;6.04
29701;BMP280;57917;51.380;-0.176;2023-02-23T20:40:30;101655.31;;;6.01
29701;BMP280;57917;51.380;-0.176;2023-02-23T20:46:21;101635.94;;;6.02
29701;BMP280;57917;51.380;-0.176;2023-02-23T20:52:11;101622.88;;;5.71
29701;BMP280;57917;51.380;-0.176;2023-02-23T20:58:00;101616.47;;;5.67
29701;BMP280;57917;51.380;-0.176;2023-02-23T21:04:00;101620.44;;;5.44
29701;BMP280;57917;51.380;-0.176;2023-02-23T21:09:51;101630.84;;;5.58
29701;BMP280;57917;51.380;-0.176;2023-02-23T21:15:52;101632.66;;;5.32
29701;BMP280;57917;51.380;-0.176;2023-02-23T21:21:48;101625.97;;;5.36
29701;BMP280;57917;51.380;-0.176;2023-02-23T21:27:53;101632.38;;;5.47
29701;BMP280;57917;51.380;-0.176;2023-02-23T21:40:52;101623.88;;;5.20
29701;BMP280;57917;51.380;-0.176;2023-02-23T21:46:45;101630.56;;;5.16
29701;BMP280;57917;51.380;-0.176;2023-02-23T21:52:58;101622.34;;;5.06
29701;BMP280;57917;51.380;-0.176;2023-02-23T21:58:48;101615.22;;;4.82
29701;BMP280;57917;51.380;-0.176;2023-02-23T22:04:39;101602.09;;;5.13
29701;BMP280;57917;51.380;-0.176;2023-02-23T22:10:32;101598.47;;;4.83
29701;BMP280;57917;51.380;-0.176;2023-02-23T22:16:20;101606.44;;;4.95
29701;BMP280;57917;51.380;-0.176;2023-02-23T22:22:07;101591.38;;;4.84
29701;BMP280;57917;51.380;-0.176;2023-02-23T22:27:54;101593.59;;;4.87
29701;BMP280;57917;51.380;-0.176;2023-02-23T22:33:44;101597.81;;;4.43
29701;BMP280;57917;51.380;-0.176;2023-02-23T22:39:31;101591.19;;;4.34
29701;BMP280;57917;51.380;-0.176;2023-02-23T22:45:19;101595.72;;;4.08
29701;BMP280;57917;51.380;-0.176;2023-02-23T22:51:05;101584.16;;;4.15
29701;BMP280;57917;51.380;-0.176;2023-02-23T22:56:53;101592.25;;;4.14
29701;BMP280;57917;51.380;-0.176;2023-02-23T23:02:42;101582.97;;;4.24
29701;BMP280;57917;51.380;-0.176;2023-02-23T23:08:32;101582.72;;;4.39
29701;BMP280;57917;51.380;-0.176;2023-02-23T23:14:23;101587.25;;;4.57
29701;BMP280;57917;51.380;-0.176;2023-02-23T23:20:45;101579.31;;;4.32
29701;BMP280;57917;51.380;-0.176;2023-02-23T23:27:21;101584.03;;;3.97
29701;BMP280;57917;51.380;-0.176;2023-02-23T23:33:09;101577.72;;;4.31
29701;BMP280;57917;51.380;-0.176;2023-02-23T23:39:22;101558.28;;;4.45
29701;BMP280;57917;51.380;-0.176;2023-02-23T23:45:10;101537.53;;;4.37
29701;BMP280;57917;51.380;-0.176;2023-02-23T23:51:02;101535.25;;;4.09
